Terminal Aerodrome Forecast
Issued by NWS Sterling, VA

Current Version | Previous Version | Graphics & Text | Print | Product List | Glossary On
Versions: 1 2 3 4 5 6 7 8 9 10 11 12 13 14 15 16 17
000
FTUS41 KLWX 262343 RRA
TAFMRB
TAF
KMRB 262343Z 2700/2724 13004KT P6SM FEW250
     FM270400 00000KT P6SM SKC
     FM270600 VRB03KT 5SM BR BKN010
     FM271100 VRB03KT 2SM BR BKN003
     FM271500 15005KT 5SM BR SCT010
     FM271600 17010G18KT P6SM SCT040
     FM272300 18012G20KT P6SM BKN045=

USA.gov is the U.S. government's official web portal to all federal, state and local government web resources and services.